Time;durP1;ratioP1;P1;durP2;ratioP2;P2;SDS_P1;SDS_P2;PMS_P1;PMS_P2;Temp;Humidity;BMP_temperature;BMP_pressure;BME280_temperature;BME280_humidity;BME280_pressure;Samples;Min_cycle;Max_cycle;Signal;HPM_P1;HPM_P2
2023/06/01 00:00:32;;;;;;;4.03;2.50;;;13.90;99.90;;;;;;5020441;28;20029;-60
2023/06/01 00:02:57;;;;;;;2.90;2.38;;;13.80;99.90;;;;;;5019953;28;20033;-60
2023/06/01 00:05:23;;;;;;;4.50;2.33;;;13.80;99.90;;;;;;5017445;28;20041;-58
2023/06/01 00:07:49;;;;;;;2.90;1.88;;;13.60;99.90;;;;;;5015826;28;20052;-60
2023/06/01 00:10:14;;;;;;;3.67;2.05;;;13.50;99.90;;;;;;5019024;28;20909;-59
2023/06/01 00:12:40;;;;;;;2.17;1.98;;;13.10;99.90;;;;;;5017143;28;20040;-59
2023/06/01 00:15:06;;;;;;;5.22;2.25;;;12.90;99.90;;;;;;5017850;28;20082;-59
2023/06/01 00:17:32;;;;;;;3.25;2.25;;;12.80;99.90;;;;;;5015517;28;20044;-60
2023/06/01 00:20:00;;;;;;;5.78;2.38;;;12.50;99.90;;;;;;5018978;28;20037;-59
2023/06/01 00:22:28;;;;;;;7.38;2.30;;;12.20;99.90;;;;;;5017737;28;20028;-59
2023/06/01 00:24:54;;;;;;;3.25;2.08;;;12.00;99.90;;;;;;5016442;28;20032;-58
2023/06/01 00:27:20;;;;;;;3.58;2.28;;;11.90;99.90;;;;;;5016974;28;20103;-58
2023/06/01 00:29:46;;;;;;;4.32;2.60;;;11.80;99.90;;;;;;5016246;28;20121;-59
2023/06/01 00:32:12;;;;;;;4.40;2.30;;;11.80;99.90;;;;;;5019024;28;20384;-59
2023/06/01 00:34:37;;;;;;;5.07;2.45;;;11.80;99.90;;;;;;5019808;28;20022;-59
2023/06/01 00:37:03;;;;;;;3.03;2.53;;;11.70;99.90;;;;;;5019944;28;20555;-58
2023/06/01 00:39:29;;;;;;;3.72;2.20;;;11.70;99.90;;;;;;5017271;28;20510;-59
2023/06/01 00:41:54;;;;;;;3.80;2.33;;;11.70;99.90;;;;;;5015735;28;20090;-58
2023/06/01 00:44:20;;;;;;;3.35;2.10;;;11.60;99.90;;;;;;5017733;28;20080;-58
2023/06/01 00:46:46;;;;;;;8.23;2.30;;;11.60;99.90;;;;;;5018580;28;20053;-59
2023/06/01 00:49:12;;;;;;;3.28;2.33;;;11.50;99.90;;;;;;5018234;28;20398;-59
2023/06/01 00:51:37;;;;;;;2.92;2.13;;;11.50;99.90;;;;;;5016604;28;20026;-60
2023/06/01 00:54:03;;;;;;;3.97;2.70;;;11.40;99.90;;;;;;5016766;28;20034;-60
2023/06/01 00:56:31;;;;;;;14.43;2.83;;;11.40;99.90;;;;;;5019652;28;20033;-59
2023/06/01 00:58:57;;;;;;;3.70;2.20;;;11.30;99.90;;;;;;5016223;28;20596;-58
2023/06/01 01:01:24;;;;;;;3.55;2.47;;;11.20;99.90;;;;;;5016996;28;20068;-58
2023/06/01 01:03:57;;;;;;;5.25;2.33;;;11.20;99.90;;;;;;5016338;28;20037;-58
2023/06/01 01:06:45;;;;;;;3.25;2.67;;;11.10;99.90;;;;;;5015765;28;20368;-60
2023/06/01 01:09:13;;;;;;;2.45;2.05;;;11.20;99.90;;;;;;5018781;28;20193;-59
2023/06/01 01:11:43;;;;;;;7.63;2.63;;;11.20;99.90;;;;;;5016475;28;20109;-59
2023/06/01 01:14:27;;;;;;;7.45;2.55;;;11.20;99.90;;;;;;5017808;28;20076;-58
2023/06/01 01:17:42;;;;;;;3.55;2.13;;;11.20;99.90;;;;;;5016880;28;20037;-58
2023/06/01 01:20:21;;;;;;;4.10;2.50;;;11.30;99.90;;;;;;4985430;28;20121;-58
2023/06/01 01:23:04;;;;;;;2.80;2.47;;;11.30;99.90;;;;;;4986170;28;20446;-59
2023/06/01 01:25:53;;;;;;;4.88;2.97;;;11.30;99.90;;;;;;5008583;28;20018;-58
2023/06/01 01:28:42;;;;;;;4.85;2.63;;;11.30;99.90;;;;;;4998724;28;20025;-58
2023/06/01 01:31:12;;;;;;;3.17;2.20;;;11.20;99.90;;;;;;5017776;28;20037;-59
2023/06/01 01:33:39;;;;;;;6.78;2.15;;;11.00;99.90;;;;;;5017287;28;20033;-59
2023/06/01 01:36:06;;;;;;;4.60;2.55;;;10.70;99.90;;;;;;5014881;28;20021;-59
2023/06/01 01:38:36;;;;;;;3.15;2.55;;;10.50;99.90;;;;;;5022000;28;20039;-59
2023/06/01 01:41:02;;;;;;;3.92;2.45;;;10.30;99.90;;;;;;5016970;28;20111;-59
2023/06/01 01:43:28;;;;;;;2.50;2.00;;;10.30;99.90;;;;;;5010369;28;20066;-60
2023/06/01 01:46:02;;;;;;;5.10;2.75;;;10.20;99.90;;;;;;5014106;28;20033;-58
2023/06/01 01:49:00;;;;;;;5.00;2.67;;;10.20;99.90;;;;;;5017449;28;20040;-59
2023/06/01 01:52:06;;;;;;;3.70;2.72;;;10.20;99.90;;;;;;5015671;28;20041;-58
2023/06/01 01:54:36;;;;;;;4.50;3.13;;;10.30;99.90;;;;;;5010441;28;20033;-59
2023/06/01 01:57:02;;;;;;;4.00;3.15;;;10.30;99.90;;;;;;5014384;28;20546;-60
2023/06/01 01:59:28;;;;;;;4.80;2.67;;;10.30;99.90;;;;;;5016171;28;20662;-58
2023/06/01 02:01:55;;;;;;;3.17;2.45;;;10.30;99.90;;;;;;5017600;28;20109;-58
2023/06/01 02:04:21;;;;;;;3.55;2.53;;;10.30;99.90;;;;;;5015588;28;20101;-59
2023/06/01 02:06:47;;;;;;;3.60;2.40;;;10.30;99.90;;;;;;5014805;28;20136;-58
2023/06/01 02:09:12;;;;;;;3.60;2.92;;;10.30;99.90;;;;;;5016186;28;20378;-59
2023/06/01 02:11:38;;;;;;;5.32;2.95;;;10.30;99.90;;;;;;5013272;28;20033;-59
2023/06/01 02:14:04;;;;;;;4.15;3.17;;;10.20;99.90;;;;;;5016191;28;20510;-59
2023/06/01 02:16:30;;;;;;;3.30;2.65;;;10.20;99.90;;;;;;5018715;28;20075;-59
2023/06/01 02:18:57;;;;;;;2.67;2.35;;;10.10;99.90;;;;;;5013932;28;20737;-59
2023/06/01 02:21:23;;;;;;;3.20;2.92;;;10.10;99.90;;;;;;5016913;28;20066;-59
2023/06/01 02:23:49;;;;;;;3.20;2.83;;;10.10;99.90;;;;;;5014077;28;20067;-58
2023/06/01 02:26:16;;;;;;;4.50;3.00;;;10.00;99.90;;;;;;5018362;28;20025;-58
2023/06/01 02:28:42;;;;;;;4.97;2.63;;;9.90;99.90;;;;;;5015246;28;20030;-60
2023/06/01 02:31:08;;;;;;;4.85;3.20;;;9.90;99.90;;;;;;5014309;28;20428;-58
2023/06/01 02:33:34;;;;;;;5.40;2.75;;;9.80;99.90;;;;;;5017684;28;20022;-58
2023/06/01 02:36:00;;;;;;;5.30;2.70;;;9.70;99.90;;;;;;5014166;28;20149;-59
2023/06/01 02:38:26;;;;;;;3.70;2.60;;;9.70;99.90;;;;;;5015626;28;20048;-58
2023/06/01 02:40:52;;;;;;;5.05;3.08;;;9.80;99.90;;;;;;5017303;28;20652;-58
2023/06/01 02:43:18;;;;;;;4.05;3.20;;;9.90;99.90;;;;;;5012731;28;20052;-59
2023/06/01 02:45:43;;;;;;;4.15;2.75;;;9.90;99.90;;;;;;5015776;28;20026;-59
2023/06/01 02:48:09;;;;;;;4.70;3.05;;;9.90;99.90;;;;;;5020027;28;20030;-60
2023/06/01 02:50:35;;;;;;;6.20;3.72;;;9.80;99.90;;;;;;5020347;28;20068;-59
2023/06/01 02:53:01;;;;;;;3.67;3.28;;;9.80;99.90;;;;;;5019831;28;20045;-59
2023/06/01 02:55:27;;;;;;;4.22;3.10;;;9.70;99.90;;;;;;5016641;28;20084;-59
2023/06/01 02:57:52;;;;;;;3.75;2.83;;;9.70;99.90;;;;;;5016591;28;20026;-58
2023/06/01 03:00:18;;;;;;;4.38;3.00;;;9.70;99.90;;;;;;5022927;28;20038;-58
2023/06/01 03:02:45;;;;;;;4.32;3.47;;;9.70;99.90;;;;;;5018653;28;20037;-58
2023/06/01 03:05:15;;;;;;;5.22;2.92;;;9.60;99.90;;;;;;5020016;28;20040;-59
2023/06/01 03:07:41;;;;;;;3.72;2.67;;;9.50;99.90;;;;;;5018500;28;20029;-57
2023/06/01 03:10:08;;;;;;;3.30;2.70;;;9.50;99.90;;;;;;5018718;28;20890;-58
2023/06/01 03:12:34;;;;;;;7.75;3.08;;;9.40;99.90;;;;;;5021363;28;20944;-60
2023/06/01 03:14:59;;;;;;;5.43;2.83;;;9.40;99.90;;;;;;5018638;28;20038;-59
2023/06/01 03:17:25;;;;;;;5.10;3.13;;;9.30;99.90;;;;;;5021312;28;20490;-59
2023/06/01 03:19:51;;;;;;;5.47;2.90;;;9.30;99.90;;;;;;5020639;28;20034;-59
2023/06/01 03:22:17;;;;;;;3.78;2.90;;;9.30;99.90;;;;;;5018835;28;20034;-59
2023/06/01 03:24:44;;;;;;;4.82;3.28;;;9.20;99.90;;;;;;5017243;28;20506;-60
2023/06/01 03:27:11;;;;;;;8.25;3.55;;;9.30;99.90;;;;;;5018171;28;20021;-59
2023/06/01 03:29:36;;;;;;;4.90;3.33;;;9.30;99.90;;;;;;5024129;28;20038;-60
2023/06/01 03:32:02;;;;;;;4.13;2.78;;;9.30;99.90;;;;;;5021414;28;20394;-58
2023/06/01 03:34:29;;;;;;;4.00;3.58;;;9.30;99.90;;;;;;5018054;28;20099;-59
2023/06/01 03:36:56;;;;;;;6.70;3.67;;;9.30;99.90;;;;;;5018423;28;20022;-58
2023/06/01 03:39:21;;;;;;;7.13;4.10;;;9.30;99.90;;;;;;5017243;28;20026;-59
2023/06/01 03:41:47;;;;;;;4.75;3.72;;;9.30;99.90;;;;;;5021332;28;20087;-58
2023/06/01 03:44:13;;;;;;;7.03;3.13;;;9.30;99.90;;;;;;5019223;28;20546;-58
2023/06/01 03:46:39;;;;;;;3.92;2.80;;;9.20;99.90;;;;;;5020183;28;20029;-60
2023/06/01 03:49:05;;;;;;;3.17;2.88;;;9.10;99.90;;;;;;5020293;28;20018;-60
2023/06/01 03:51:31;;;;;;;4.85;3.03;;;9.10;99.90;;;;;;5019370;28;20078;-59
2023/06/01 03:53:57;;;;;;;3.30;3.00;;;9.10;99.90;;;;;;5019729;28;20115;-59
2023/06/01 03:56:23;;;;;;;8.90;3.30;;;9.10;99.90;;;;;;5019184;28;20085;-59
2023/06/01 03:58:50;;;;;;;3.92;3.45;;;9.00;99.90;;;;;;5016540;28;20033;-59
2023/06/01 04:01:19;;;;;;;4.22;3.50;;;9.00;99.90;;;;;;5017520;28;20026;-58
2023/06/01 04:03:46;;;;;;;6.30;3.42;;;9.10;99.90;;;;;;5018120;28;20030;-60
2023/06/01 04:06:13;;;;;;;10.90;3.60;;;9.10;99.90;;;;;;5020005;28;20436;-58
2023/06/01 04:08:48;;;;;;;5.22;2.75;;;9.20;99.90;;;;;;5016766;28;20060;-59
2023/06/01 04:11:15;;;;;;;3.50;3.20;;;9.20;99.90;;;;;;5018169;28;20463;-59
2023/06/01 04:13:40;;;;;;;4.70;2.80;;;9.30;99.90;;;;;;5017155;28;20516;-58
2023/06/01 04:16:06;;;;;;;4.90;4.13;;;9.30;99.90;;;;;;5018536;28;20053;-59
2023/06/01 04:18:32;;;;;;;5.60;3.28;;;9.30;99.90;;;;;;5018017;28;20072;-59
2023/06/01 04:20:57;;;;;;;5.85;3.70;;;9.20;99.90;;;;;;5017158;28;20026;-58
2023/06/01 04:23:23;;;;;;;4.55;3.70;;;9.20;99.90;;;;;;5018244;28;20030;-60
2023/06/01 04:25:52;;;;;;;4.28;3.30;;;9.20;99.90;;;;;;5016855;28;20587;-59
2023/06/01 04:28:18;;;;;;;4.63;3.72;;;9.20;99.90;;;;;;5018046;28;20054;-59
2023/06/01 04:30:44;;;;;;;6.07;3.58;;;9.20;99.90;;;;;;5016288;28;20033;-59
2023/06/01 04:33:10;;;;;;;5.22;3.42;;;9.20;99.90;;;;;;5017394;28;20005;-59
2023/06/01 04:35:36;;;;;;;3.90;3.50;;;9.30;99.90;;;;;;5016696;28;20021;-59
2023/06/01 04:38:02;;;;;;;4.78;3.35;;;9.30;99.90;;;;;;5016979;28;20023;-60
2023/06/01 04:40:28;;;;;;;5.60;3.33;;;9.40;99.90;;;;;;5019159;28;20022;-59
2023/06/01 04:42:57;;;;;;;4.15;3.42;;;9.50;99.90;;;;;;5019028;28;20032;-59
2023/06/01 04:45:25;;;;;;;5.55;4.43;;;9.50;99.90;;;;;;5019666;28;20017;-59
2023/06/01 04:47:51;;;;;;;5.72;3.85;;;9.40;99.90;;;;;;5017526;28;20014;-60
2023/06/01 04:50:17;;;;;;;4.72;4.07;;;9.50;99.90;;;;;;5014831;28;20112;-60
2023/06/01 04:52:44;;;;;;;4.85;3.90;;;9.50;99.90;;;;;;5016725;28;20018;-58
2023/06/01 04:55:13;;;;;;;3.80;3.50;;;9.70;99.90;;;;;;5017823;28;20029;-59
2023/06/01 04:57:44;;;;;;;7.13;4.20;;;9.80;99.90;;;;;;5021789;28;20025;-60
2023/06/01 05:00:12;;;;;;;6.47;4.70;;;9.90;99.90;;;;;;5015949;28;20434;-59
2023/06/01 05:02:40;;;;;;;4.88;4.13;;;10.00;99.90;;;;;;5015669;28;20034;-59
2023/06/01 05:05:07;;;;;;;7.18;3.85;;;10.00;99.90;;;;;;5016750;28;20402;-59
2023/06/01 05:07:33;;;;;;;6.47;3.45;;;10.00;99.90;;;;;;5019554;28;20033;-59
2023/06/01 05:10:04;;;;;;;10.90;3.53;;;10.00;99.90;;;;;;5015388;28;20037;-58
2023/06/01 05:12:29;;;;;;;7.53;4.20;;;10.10;99.90;;;;;;5018111;28;20135;-59
2023/06/01 05:14:55;;;;;;;3.58;3.00;;;10.10;99.90;;;;;;5019412;28;20116;-59
2023/06/01 05:17:21;;;;;;;5.88;4.35;;;10.20;99.90;;;;;;5018703;28;20662;-60
2023/06/01 05:19:46;;;;;;;7.68;4.20;;;10.30;99.90;;;;;;5015797;28;20030;-60
2023/06/01 05:22:12;;;;;;;3.60;3.30;;;10.40;99.90;;;;;;5018359;28;20029;-60
2023/06/01 05:24:38;;;;;;;6.47;4.20;;;10.50;99.90;;;;;;5017791;28;20029;-60
2023/06/01 05:27:04;;;;;;;6.30;4.05;;;10.70;99.90;;;;;;5016635;28;20036;-59
2023/06/01 05:29:30;;;;;;;3.70;3.40;;;10.80;99.90;;;;;;5018407;28;20052;-58
2023/06/01 05:31:55;;;;;;;6.20;4.10;;;11.00;99.90;;;;;;5016059;28;20022;-59
2023/06/01 05:34:22;;;;;;;4.70;4.25;;;11.20;99.90;;;;;;5016138;28;20371;-60
2023/06/01 05:36:48;;;;;;;8.32;4.13;;;11.30;99.90;;;;;;5016444;28;20053;-59
2023/06/01 05:39:14;;;;;;;4.57;4.18;;;11.50;99.90;;;;;;5016552;28;20060;-60
2023/06/01 05:41:41;;;;;;;4.63;3.78;;;11.60;99.90;;;;;;5016098;28;20034;-59
2023/06/01 05:44:06;;;;;;;11.48;6.05;;;11.70;99.90;;;;;;5016861;28;20029;-60
2023/06/01 05:46:32;;;;;;;6.38;4.63;;;11.80;99.90;;;;;;5016507;28;20495;-59
2023/06/01 05:48:57;;;;;;;5.18;4.28;;;12.00;99.90;;;;;;5018061;28;20030;-60
2023/06/01 05:51:23;;;;;;;4.82;3.90;;;12.10;99.90;;;;;;5018551;28;20033;-57
2023/06/01 05:53:49;;;;;;;7.18;5.15;;;12.20;99.90;;;;;;5018602;28;20033;-59
2023/06/01 05:56:16;;;;;;;5.32;4.80;;;12.30;99.90;;;;;;5016661;28;20572;-60
2023/06/01 05:58:43;;;;;;;8.85;4.97;;;12.40;99.90;;;;;;5019584;28;20036;-58
2023/06/01 06:01:09;;;;;;;6.43;4.70;;;12.60;99.90;;;;;;5019478;28;20036;-60
2023/06/01 06:03:35;;;;;;;9.40;4.50;;;12.70;99.90;;;;;;5017414;28;20022;-59
2023/06/01 06:06:01;;;;;;;5.00;4.50;;;12.80;99.90;;;;;;5018257;28;20414;-58
2023/06/01 06:08:27;;;;;;;5.88;4.47;;;12.90;99.90;;;;;;5017638;28;20025;-58
2023/06/01 06:10:53;;;;;;;7.38;4.55;;;12.90;99.90;;;;;;5018293;28;20036;-59
2023/06/01 06:13:18;;;;;;;15.20;4.10;;;13.00;99.90;;;;;;5016936;28;20022;-60
2023/06/01 06:15:44;;;;;;;10.13;3.85;;;13.10;99.90;;;;;;5019967;28;20090;-60
2023/06/01 06:18:10;;;;;;;7.40;3.67;;;13.30;99.90;;;;;;5022203;28;20010;-60
2023/06/01 06:20:35;;;;;;;5.57;4.00;;;13.50;99.90;;;;;;5015925;28;20034;-59
2023/06/01 06:23:01;;;;;;;7.95;3.88;;;13.60;99.90;;;;;;5022330;28;20052;-59
2023/06/01 06:25:27;;;;;;;4.22;3.45;;;13.80;99.90;;;;;;5020442;28;20076;-59
2023/06/01 06:27:52;;;;;;;11.77;3.72;;;13.90;99.90;;;;;;5022192;28;20017;-59
2023/06/01 06:30:18;;;;;;;12.18;3.58;;;14.10;99.90;;;;;;5016283;28;20033;-60
2023/06/01 06:32:45;;;;;;;3.58;3.28;;;14.30;99.90;;;;;;5014621;28;20065;-61
2023/06/01 06:35:12;;;;;;;5.85;3.42;;;14.50;99.90;;;;;;5019101;28;20057;-59
2023/06/01 06:37:40;;;;;;;6.80;3.55;;;14.70;99.90;;;;;;5014925;28;20084;-59
2023/06/01 06:40:06;;;;;;;4.47;3.10;;;14.90;99.90;;;;;;5016802;28;20057;-60
2023/06/01 06:42:32;;;;;;;6.35;2.70;;;15.00;99.90;;;;;;5017315;28;20474;-61
2023/06/01 06:44:58;;;;;;;6.00;3.33;;;15.20;99.90;;;;;;5016679;28;20037;-59
2023/06/01 06:47:24;;;;;;;4.57;2.92;;;15.30;99.90;;;;;;5017046;28;20041;-59
2023/06/01 06:49:51;;;;;;;7.13;2.67;;;15.50;99.90;;;;;;5014755;28;20042;-59
2023/06/01 06:52:16;;;;;;;7.68;3.05;;;15.60;99.90;;;;;;5016288;28;20026;-60
2023/06/01 06:54:43;;;;;;;3.60;3.10;;;15.80;99.90;;;;;;5015211;28;20100;-60
2023/06/01 06:57:10;;;;;;;3.58;2.47;;;16.00;99.90;;;;;;5016001;28;20022;-60
2023/06/01 06:59:36;;;;;;;9.48;3.05;;;16.10;99.90;;;;;;5016708;28;20058;-59
2023/06/01 07:02:03;;;;;;;9.52;2.97;;;16.20;99.90;;;;;;5016603;28;20506;-60
2023/06/01 07:04:29;;;;;;;5.10;2.40;;;16.40;99.90;;;;;;5014324;28;20029;-61
2023/06/01 07:06:55;;;;;;;3.80;2.30;;;16.50;99.90;;;;;;5017560;28;20029;-59
2023/06/01 07:09:21;;;;;;;3.92;2.30;;;16.60;99.90;;;;;;5017887;28;20411;-60
2023/06/01 07:11:47;;;;;;;5.13;2.47;;;16.70;99.90;;;;;;5014642;28;20112;-57
2023/06/01 07:14:16;;;;;;;5.30;1.90;;;16.80;99.90;;;;;;5015336;28;20225;-57
2023/06/01 07:16:41;;;;;;;7.00;2.10;;;16.90;99.90;;;;;;5014024;28;20033;-57
2023/06/01 07:19:08;;;;;;;5.03;2.03;;;17.00;99.90;;;;;;5015632;28;20367;-57
2023/06/01 07:21:33;;;;;;;4.68;1.85;;;17.10;99.90;;;;;;5013988;28;20022;-56
2023/06/01 07:23:59;;;;;;;4.30;1.95;;;17.20;99.90;;;;;;5014723;28;20028;-59
2023/06/01 07:26:28;;;;;;;7.50;2.08;;;17.40;99.90;;;;;;5017752;28;20030;-57
2023/06/01 07:28:54;;;;;;;6.60;2.60;;;17.50;99.90;;;;;;5011046;28;20033;-61
2023/06/01 07:31:21;;;;;;;3.63;1.65;;;17.60;99.90;;;;;;5016972;28;20874;-60
2023/06/01 07:33:46;;;;;;;4.10;1.90;;;17.70;99.90;;;;;;5017613;28;20017;-58
2023/06/01 07:36:12;;;;;;;4.45;1.70;;;17.80;99.90;;;;;;5018122;28;20009;-57
2023/06/01 07:38:38;;;;;;;5.53;1.90;;;17.90;99.90;;;;;;5019297;28;20034;-58
2023/06/01 07:41:03;;;;;;;3.20;1.75;;;18.00;99.70;;;;;;5014101;28;20129;-58
2023/06/01 07:43:29;;;;;;;4.38;2.28;;;18.20;99.90;;;;;;5015036;28;20076;-58
2023/06/01 07:45:55;;;;;;;2.97;2.10;;;18.40;96.30;;;;;;5021664;28;20099;-57
2023/06/01 07:48:21;;;;;;;3.97;1.75;;;18.60;94.70;;;;;;5015317;28;20497;-57
2023/06/01 07:50:47;;;;;;;13.23;2.03;;;18.80;93.80;;;;;;5019699;28;20021;-58
2023/06/01 07:53:13;;;;;;;4.03;1.80;;;18.90;93.50;;;;;;5021092;28;20036;-57
2023/06/01 07:55:39;;;;;;;3.08;2.08;;;19.10;91.20;;;;;;5025360;28;20032;-57
2023/06/01 07:58:05;;;;;;;7.85;1.60;;;19.20;91.20;;;;;;5019144;28;20022;-58
2023/06/01 08:00:31;;;;;;;7.35;1.90;;;19.30;91.30;;;;;;5016183;28;20375;-59
2023/06/01 08:02:58;;;;;;;6.88;1.70;;;19.40;90.80;;;;;;5017599;28;20032;-57
2023/06/01 08:05:24;;;;;;;6.80;2.15;;;19.60;89.90;;;;;;5019080;28;20056;-57
2023/06/01 08:07:50;;;;;;;4.45;2.17;;;19.70;89.00;;;;;;5015249;28;20398;-57
2023/06/01 08:10:16;;;;;;;4.90;2.35;;;19.90;88.70;;;;;;5016810;28;20037;-57
2023/06/01 08:12:42;;;;;;;5.88;1.80;;;20.00;90.20;;;;;;5015488;28;20113;-59
2023/06/01 08:15:11;;;;;;;3.15;1.77;;;20.20;88.40;;;;;;5016770;28;20133;-56
2023/06/01 08:17:38;;;;;;;4.78;1.80;;;20.40;87.20;;;;;;5018835;28;20449;-58
2023/06/01 08:20:10;;;;;;;3.78;1.65;;;20.50;85.20;;;;;;5018505;28;20034;-57
2023/06/01 08:22:37;;;;;;;4.30;1.48;;;20.50;84.00;;;;;;5020379;28;20060;-58
2023/06/01 08:25:03;;;;;;;4.53;2.17;;;20.70;85.70;;;;;;5017534;28;20358;-57
2023/06/01 08:27:29;;;;;;;4.10;1.60;;;20.90;85.10;;;;;;5018944;28;20547;-58
2023/06/01 08:29:55;;;;;;;10.38;2.38;;;21.00;84.20;;;;;;5015705;28;20064;-58
2023/06/01 08:32:20;;;;;;;4.38;1.90;;;21.10;83.40;;;;;;5019682;28;20053;-58
2023/06/01 08:34:47;;;;;;;6.40;1.73;;;21.20;81.90;;;;;;5017890;28;20117;-57
2023/06/01 08:37:16;;;;;;;3.70;1.70;;;21.30;84.00;;;;;;5019897;28;20836;-58
2023/06/01 08:39:42;;;;;;;4.00;2.00;;;21.30;83.30;;;;;;5017137;28;20116;-58
2023/06/01 08:42:13;;;;;;;4.82;1.35;;;21.40;82.30;;;;;;5017066;28;20071;-58
2023/06/01 08:44:40;;;;;;;4.28;1.80;;;21.40;82.20;;;;;;5017419;28;20032;-58
2023/06/01 08:47:07;;;;;;;7.90;1.63;;;21.40;82.20;;;;;;5018099;28;20028;-59
2023/06/01 08:49:35;;;;;;;5.15;2.10;;;21.40;81.80;;;;;;5018706;28;20017;-57
2023/06/01 08:52:04;;;;;;;3.17;1.42;;;21.50;80.20;;;;;;5018432;28;20033;-57
2023/06/01 08:54:31;;;;;;;4.68;1.50;;;21.60;77.10;;;;;;5017103;28;20009;-58
2023/06/01 08:57:02;;;;;;;3.47;1.58;;;21.70;78.30;;;;;;5016871;28;20708;-57
2023/06/01 08:59:29;;;;;;;;;;;21.80;77.90;;;;;;5014744;28;20045;-58
2023/06/01 09:01:56;;;;;;;3.13;1.45;;;22.00;76.70;;;;;;5017821;28;20366;-58
2023/06/01 09:04:21;;;;;;;2.65;1.63;;;22.10;74.60;;;;;;5013462;28;20037;-58
2023/06/01 09:06:48;;;;;;;2.15;1.50;;;22.10;71.30;;;;;;5017488;28;20026;-58
2023/06/01 09:09:14;;;;;;;1.75;1.17;;;22.20;71.40;;;;;;5018401;28;20041;-58
2023/06/01 09:11:39;;;;;;;2.10;1.67;;;22.30;63.40;;;;;;5018422;28;20045;-58
2023/06/01 09:14:22;;;;;;;2.88;1.30;;;22.40;64.60;;;;;;5017391;28;20108;-58
2023/06/01 09:16:47;;;;;;;8.10;1.80;;;22.50;66.10;;;;;;5018486;28;20029;-58
2023/06/01 09:19:13;;;;;;;1.85;1.40;;;22.60;65.00;;;;;;5014297;28;20029;-59
2023/06/01 09:21:39;;;;;;;2.28;1.30;;;22.60;66.40;;;;;;5018183;28;20049;-58
2023/06/01 09:24:26;;;;;;;2.95;1.30;;;22.60;62.60;;;;;;5016539;28;20045;-58
2023/06/01 09:26:59;;;;;;;4.20;1.25;;;22.60;63.10;;;;;;5016580;28;20520;-57
2023/06/01 09:29:25;;;;;;;1.48;1.15;;;22.70;66.50;;;;;;5018245;28;20566;-58
2023/06/01 09:31:50;;;;;;;4.50;1.30;;;22.80;67.40;;;;;;5018474;28;20091;-58
2023/06/01 09:34:21;;;;;;;2.22;1.52;;;23.00;68.00;;;;;;5017804;28;20502;-57
2023/06/01 09:36:47;;;;;;;3.25;1.55;;;23.20;66.40;;;;;;5016428;28;20044;-57
2023/06/01 09:39:15;;;;;;;4.40;1.30;;;23.30;66.50;;;;;;5018559;28;20490;-58
2023/06/01 09:42:01;;;;;;;2.83;1.20;;;23.40;65.10;;;;;;5014748;28;20048;-58
2023/06/01 09:44:32;;;;;;;2.47;1.65;;;23.50;67.10;;;;;;5016029;28;20120;-59
2023/06/01 09:47:00;;;;;;;3.00;1.55;;;23.60;62.60;;;;;;5017498;28;20029;-58
2023/06/01 09:49:30;;;;;;;2.97;1.45;;;23.60;65.00;;;;;;5014722;28;20398;-56
2023/06/01 09:52:14;;;;;;;3.35;1.60;;;23.80;64.60;;;;;;5015432;28;20018;-57
2023/06/01 09:54:47;;;;;;;4.47;1.83;;;24.00;61.60;;;;;;5016963;28;20034;-58
2023/06/01 09:57:19;;;;;;;4.60;1.70;;;24.10;61.40;;;;;;5019992;28;20026;-58
2023/06/01 09:59:46;;;;;;;2.92;1.73;;;24.00;61.00;;;;;;5018044;28;20088;-58
2023/06/01 10:02:18;;;;;;;3.20;2.13;;;24.20;59.60;;;;;;5017241;28;20033;-59
2023/06/01 10:05:00;;;;;;;2.25;1.65;;;24.30;59.10;;;;;;5016401;28;20116;-59
2023/06/01 10:07:33;;;;;;;6.03;1.50;;;24.30;59.00;;;;;;5016628;28;20029;-59
2023/06/01 10:10:02;;;;;;;4.32;1.30;;;24.50;58.40;;;;;;5019866;28;20038;-58
2023/06/01 10:12:28;;;;;;;3.22;1.73;;;24.80;60.20;;;;;;5015773;28;20034;-58
2023/06/01 10:14:55;;;;;;;2.08;1.70;;;25.10;58.90;;;;;;5015429;28;20084;-58
2023/06/01 10:17:21;;;;;;;4.15;1.55;;;25.10;59.60;;;;;;5016823;28;20421;-58
2023/06/01 10:19:48;;;;;;;4.60;1.40;;;25.10;57.10;;;;;;5015367;28;20040;-57
2023/06/01 10:22:14;;;;;;;4.80;1.55;;;24.90;56.50;;;;;;5016906;28;20040;-57
2023/06/01 10:24:41;;;;;;;4.28;1.50;;;24.80;57.60;;;;;;5015570;28;20544;-57
2023/06/01 10:27:44;;;;;;;1.85;1.20;;;24.70;56.50;;;;;;5015911;28;20117;-58
2023/06/01 10:30:10;;;;;;;2.30;1.20;;;24.50;59.20;;;;;;5019820;28;20196;-58
2023/06/01 10:32:48;;;;;;;3.17;1.35;;;24.60;60.90;;;;;;5021682;28;20071;-56
2023/06/01 10:35:43;;;;;;;3.75;1.20;;;24.70;59.40;;;;;;5019609;28;20480;-58
2023/06/01 10:38:14;;;;;;;5.25;1.48;;;24.70;56.50;;;;;;5013477;28;20120;-59
2023/06/01 10:40:44;;;;;;;3.03;1.35;;;24.80;58.00;;;;;;5018326;28;20037;-57
2023/06/01 10:43:35;;;;;;;2.05;1.40;;;24.80;55.90;;;;;;5016940;28;20081;-59
2023/06/01 10:46:01;;;;;;;5.35;1.23;;;24.90;55.00;;;;;;5019188;28;20037;-56
2023/06/01 10:48:52;;;;;;;3.83;1.50;;;24.90;58.70;;;;;;5017711;28;20079;-58
2023/06/01 10:51:20;;;;;;;1.92;1.30;;;25.00;56.40;;;;;;5015505;28;20037;-59
2023/06/01 10:53:46;;;;;;;11.13;1.55;;;25.00;56.50;;;;;;5013538;28;20036;-57
2023/06/01 10:56:28;;;;;;;2.97;1.45;;;25.10;56.20;;;;;;5014260;28;20037;-58
2023/06/01 10:59:08;;;;;;;9.32;1.60;;;25.10;56.50;;;;;;5018533;28;20113;-58
2023/06/01 11:01:42;;;;;;;3.75;1.27;;;25.20;55.40;;;;;;5017273;28;20029;-58
2023/06/01 11:04:08;;;;;;;3.47;1.40;;;25.20;55.50;;;;;;5018345;28;20055;-59
2023/06/01 11:06:38;;;;;;;2.03;1.25;;;25.30;57.20;;;;;;5020190;28;20025;-58
2023/06/01 11:09:10;;;;;;;2.85;1.08;;;25.40;55.60;;;;;;5022374;28;20030;-59
2023/06/01 11:11:51;;;;;;;5.18;1.38;;;25.50;56.50;;;;;;5020545;28;20037;-58
2023/06/01 11:14:44;;;;;;;3.38;1.63;;;25.70;55.50;;;;;;5023003;28;20501;-58
2023/06/01 11:17:30;;;;;;;4.63;1.42;;;25.60;52.80;;;;;;5018311;28;20029;-58
2023/06/01 11:20:01;;;;;;;5.13;1.60;;;25.60;52.30;;;;;;5017325;28;20034;-58
2023/06/01 11:22:35;;;;;;;2.85;1.48;;;25.60;53.10;;;;;;5020640;28;20493;-59
2023/06/01 11:25:04;;;;;;;4.88;1.58;;;25.60;52.80;;;;;;5019100;28;20258;-59
2023/06/01 11:27:30;;;;;;;2.75;1.40;;;25.50;52.70;;;;;;5024430;28;20108;-59
2023/06/01 11:29:56;;;;;;;4.72;1.45;;;25.40;52.20;;;;;;5019392;28;20153;-60
2023/06/01 11:32:24;;;;;;;2.22;1.40;;;25.40;53.80;;;;;;5022545;28;20100;-58
2023/06/01 11:34:51;;;;;;;3.05;1.55;;;25.40;52.40;;;;;;5022187;28;20017;-58
2023/06/01 11:37:18;;;;;;;3.03;1.27;;;25.40;54.20;;;;;;5020937;28;20026;-59
2023/06/01 11:39:45;;;;;;;3.75;1.50;;;25.50;52.80;;;;;;5020102;28;20048;-58
2023/06/01 11:42:19;;;;;;;2.97;1.48;;;25.50;54.60;;;;;;5019990;28;20119;-57
2023/06/01 11:44:56;;;;;;;6.65;1.50;;;25.40;54.60;;;;;;5020487;28;20025;-58
2023/06/01 11:47:22;;;;;;;2.15;1.35;;;25.50;55.30;;;;;;5021838;28;20025;-59
2023/06/01 11:49:50;;;;;;;3.33;1.40;;;25.50;55.60;;;;;;5020987;28;20382;-58
2023/06/01 11:52:19;;;;;;;2.70;1.52;;;25.60;54.80;;;;;;5016798;28;20656;-57
2023/06/01 11:54:49;;;;;;;2.50;1.38;;;25.70;53.50;;;;;;5019040;28;20033;-59
2023/06/01 11:57:15;;;;;;;3.08;1.13;;;25.70;51.00;;;;;;5021865;28;21018;-58
2023/06/01 11:59:41;;;;;;;3.30;1.30;;;25.60;52.50;;;;;;5023297;28;20123;-59
2023/06/01 12:02:27;;;;;;;2.20;1.40;;;25.70;52.60;;;;;;5019579;28;20022;-59
2023/06/01 12:05:08;;;;;;;2.72;1.40;;;25.70;54.20;;;;;;5021705;28;20394;-59
2023/06/01 12:08:07;;;;;;;4.32;1.60;;;25.80;52.20;;;;;;5022078;28;20026;-59
2023/06/01 12:10:33;;;;;;;3.25;1.20;;;25.90;52.70;;;;;;5001994;28;20444;-58
2023/06/01 12:12:59;;;;;;;3.33;1.35;;;26.00;51.70;;;;;;5022194;28;20049;-58
2023/06/01 12:15:25;;;;;;;2.15;1.30;;;26.20;51.90;;;;;;5021448;28;20064;-58
2023/06/01 12:17:55;;;;;;;4.72;1.70;;;26.40;52.30;;;;;;5021854;28;20032;-58
2023/06/01 12:20:31;;;;;;;3.20;1.55;;;26.40;53.80;;;;;;5023317;28;20080;-59
2023/06/01 12:22:58;;;;;;;1.63;1.20;;;26.40;52.40;;;;;;5017640;28;20056;-58
2023/06/01 12:25:25;;;;;;;4.13;1.90;;;26.40;52.50;;;;;;5018502;28;20119;-59
2023/06/01 12:28:04;;;;;;;2.70;1.35;;;26.50;54.60;;;;;;5018257;28;20029;-59
2023/06/01 12:30:31;;;;;;;2.05;1.30;;;26.60;50.70;;;;;;5016893;28;20037;-59
2023/06/01 12:32:56;;;;;;;1.80;1.05;;;26.50;49.60;;;;;;5019042;28;20022;-58
2023/06/01 12:35:23;;;;;;;3.15;1.58;;;26.50;51.60;;;;;;5017386;28;20038;-59
2023/06/01 12:38:12;;;;;;;4.43;1.27;;;26.40;51.50;;;;;;5019146;28;20087;-57
2023/06/01 12:40:38;;;;;;;1.30;1.13;;;26.40;50.30;;;;;;5018163;28;20079;-58
2023/06/01 12:43:07;;;;;;;3.60;1.27;;;26.30;50.40;;;;;;5019473;28;20463;-58
2023/06/01 12:45:39;;;;;;;2.20;1.30;;;26.40;50.00;;;;;;5019494;28;20017;-58
2023/06/01 12:48:05;;;;;;;1.92;1.23;;;26.50;49.80;;;;;;5016513;28;20021;-57
2023/06/01 12:50:31;;;;;;;2.95;1.25;;;26.60;48.80;;;;;;5017958;28;20029;-58
2023/06/01 12:52:57;;;;;;;2.45;1.50;;;26.80;48.90;;;;;;5017685;28;20113;-58
2023/06/01 12:55:22;;;;;;;1.83;1.10;;;26.80;48.20;;;;;;5018677;28;20498;-59